Time;durP1;ratioP1;P1;durP2;ratioP2;P2;SDS_P1;SDS_P2;PMS_P1;PMS_P2;Temp;Humidity;BMP_temperature;BMP_pressure;BME280_temperature;BME280_humidity;BME280_pressure;Samples;Min_cycle;Max_cycle;Signal;HPM_P1;HPM_P2
2022/06/04 03:37:17;;;;;;;21.77;20.40;;;16.60;99.90;;;;;;5055076;23;20490;-73
2022/06/04 03:39:44;;;;;;;20.73;19.10;;;16.50;99.90;;;;;;5010680;28;20453;-73
2022/06/04 03:42:11;;;;;;;20.60;19.30;;;16.60;99.90;;;;;;5010411;28;20453;-73
2022/06/04 03:44:37;;;;;;;22.17;20.77;;;16.60;99.90;;;;;;5010681;28;20489;-74
2022/06/04 03:47:05;;;;;;;21.67;20.37;;;16.60;99.90;;;;;;5011010;28;20482;-74
2022/06/04 03:49:33;;;;;;;22.97;21.47;;;16.70;99.90;;;;;;5010703;28;20537;-73
2022/06/04 03:52:01;;;;;;;21.50;19.90;;;16.70;99.90;;;;;;5010554;28;21155;-74
2022/06/04 04:00:03;;;;;;;21.80;20.33;;;16.80;99.90;;;;;;5008239;28;20449;-73
2022/06/04 04:02:30;;;;;;;19.60;18.40;;;16.90;99.90;;;;;;5010546;28;20449;-73
2022/06/04 04:04:57;;;;;;;21.43;20.10;;;16.90;99.90;;;;;;5010344;28;20482;-73
2022/06/04 04:07:23;;;;;;;21.80;20.30;;;16.90;99.90;;;;;;5011017;28;20446;-74
2022/06/04 04:09:52;;;;;;;20.63;19.40;;;17.00;99.90;;;;;;5010724;28;20939;-73
2022/06/04 04:12:18;;;;;;;21.20;19.80;;;17.20;99.90;;;;;;5010460;28;20457;-73
2022/06/04 04:14:45;;;;;;;21.33;20.00;;;17.30;99.90;;;;;;5010198;28;20450;-73
2022/06/04 04:17:12;;;;;;;22.30;20.80;;;17.40;99.90;;;;;;5010498;28;20445;-75
2022/06/04 04:19:38;;;;;;;20.50;19.20;;;17.50;99.90;;;;;;5009547;28;20438;-73
2022/06/04 04:22:05;;;;;;;20.90;19.50;;;17.50;99.90;;;;;;5010822;28;20458;-73
2022/06/04 04:25:16;;;;;;;20.10;19.00;;;17.60;99.90;;;;;;5010341;28;20478;-72
2022/06/04 04:27:44;;;;;;;20.43;19.23;;;17.60;99.90;;;;;;4913117;29;20565;-72
2022/06/04 04:30:12;;;;;;;20.50;19.40;;;17.70;99.90;;;;;;4979203;28;20455;-72
2022/06/04 04:32:40;;;;;;;20.57;19.43;;;17.70;99.90;;;;;;4991157;28;20529;-72
2022/06/04 04:35:09;;;;;;;20.87;19.70;;;17.70;99.90;;;;;;4978401;28;20476;-72
2022/06/04 04:37:35;;;;;;;20.07;18.97;;;17.80;99.90;;;;;;4971922;28;20459;-71
2022/06/04 04:40:02;;;;;;;19.37;18.17;;;17.90;99.90;;;;;;4971606;28;20968;-72
2022/06/04 04:42:29;;;;;;;19.40;18.20;;;18.20;99.90;;;;;;4971518;28;20467;-72
2022/06/04 04:44:57;;;;;;;18.90;17.90;;;18.60;99.90;;;;;;4971445;28;20499;-71
2022/06/04 04:47:24;;;;;;;18.13;17.23;;;19.00;99.90;;;;;;4971591;28;20459;-72
2022/06/04 04:49:50;;;;;;;17.67;16.77;;;19.30;99.90;;;;;;4971589;28;20455;-72
2022/06/04 04:52:17;;;;;;;19.30;18.13;;;19.70;99.90;;;;;;4971483;28;20763;-72
2022/06/04 04:54:44;;;;;;;18.47;17.37;;;19.90;99.90;;;;;;4971386;28;20447;-72
2022/06/04 04:57:10;;;;;;;18.00;16.90;;;20.40;99.90;;;;;;4971235;28;20456;-72
2022/06/04 04:59:38;;;;;;;17.00;16.13;;;21.00;99.90;;;;;;4971518;28;20464;-71
2022/06/04 05:02:06;;;;;;;17.77;16.80;;;21.50;99.90;;;;;;4971405;28;20462;-72
2022/06/04 05:04:34;;;;;;;17.87;16.80;;;21.80;99.90;;;;;;4971394;28;20860;-72
2022/06/04 05:07:01;;;;;;;18.43;17.50;;;21.70;99.90;;;;;;4971293;28;20458;-74
2022/06/04 05:09:30;;;;;;;17.93;16.93;;;21.50;99.90;;;;;;4971353;28;20448;-74
2022/06/04 05:11:57;;;;;;;19.30;18.37;;;21.00;99.90;;;;;;4971017;28;20468;-73
2022/06/04 05:14:24;;;;;;;18.63;17.60;;;20.60;99.90;;;;;;4971425;28;20447;-71
2022/06/04 05:16:50;;;;;;;19.93;18.93;;;20.30;99.90;;;;;;4971324;28;20455;-72
2022/06/04 05:19:18;;;;;;;18.90;17.90;;;20.10;99.90;;;;;;4971229;28;20865;-74
2022/06/04 05:21:47;;;;;;;18.60;17.67;;;20.10;99.90;;;;;;4971074;28;20500;-75
2022/06/04 05:24:19;;;;;;;17.67;16.67;;;20.10;99.90;;;;;;4970909;28;20489;-72
2022/06/04 05:26:46;;;;;;;18.87;17.80;;;20.10;99.90;;;;;;4969582;28;20451;-72
2022/06/04 05:29:14;;;;;;;19.50;18.60;;;20.00;99.90;;;;;;4971765;28;20447;-74
2022/06/04 05:31:41;;;;;;;19.37;18.40;;;19.90;99.90;;;;;;4973375;28;20451;-72
2022/06/04 05:34:08;;;;;;;19.33;18.33;;;20.00;99.90;;;;;;4975574;28;20969;-72
2022/06/04 05:36:37;;;;;;;17.97;16.97;;;20.10;99.90;;;;;;4975428;28;20490;-72
2022/06/04 05:39:04;;;;;;;18.30;17.40;;;20.20;99.90;;;;;;4975491;28;20452;-71
2022/06/04 05:41:30;;;;;;;18.13;17.10;;;20.40;99.90;;;;;;4975551;28;20463;-73
2022/06/04 05:43:57;;;;;;;18.77;17.67;;;20.60;99.90;;;;;;4975400;28;20828;-76
2022/06/04 05:46:24;;;;;;;20.10;18.80;;;20.40;99.90;;;;;;4984873;28;20481;-74
2022/06/04 05:48:51;;;;;;;18.57;17.47;;;20.30;99.90;;;;;;4994226;28;20958;-74
2022/06/04 05:51:20;;;;;;;18.53;17.63;;;20.20;99.90;;;;;;4994611;28;20497;-73
2022/06/04 05:53:48;;;;;;;19.13;17.77;;;20.10;99.90;;;;;;4986397;28;20809;-73
2022/06/04 05:56:20;;;;;;;18.23;17.13;;;20.10;99.90;;;;;;4975276;28;20483;-74
2022/06/04 05:58:47;;;;;;;19.57;18.47;;;20.00;99.90;;;;;;4975357;28;20936;-74
2022/06/04 06:01:14;;;;;;;20.90;19.20;;;19.90;99.90;;;;;;4975347;28;20483;-73
2022/06/04 06:03:41;;;;;;;19.57;18.30;;;19.80;99.90;;;;;;4975320;28;20822;-72
2022/06/04 06:06:13;;;;;;;20.63;19.40;;;19.50;99.90;;;;;;4975296;28;20885;-72
2022/06/04 06:08:39;;;;;;;19.87;18.30;;;19.30;99.90;;;;;;4975251;28;20502;-72
2022/06/04 06:11:08;;;;;;;19.53;18.43;;;19.20;99.90;;;;;;4975175;28;20470;-72
2022/06/04 06:13:36;;;;;;;18.33;17.33;;;19.10;99.90;;;;;;4975301;28;20941;-72
2022/06/04 06:16:07;;;;;;;19.20;17.90;;;19.10;99.90;;;;;;4975087;28;20440;-73
2022/06/04 06:18:34;;;;;;;19.53;18.17;;;19.20;99.90;;;;;;4974918;28;20949;-72
2022/06/04 06:21:02;;;;;;;35.13;32.77;;;19.20;99.90;;;;;;4975151;28;20550;-72
2022/06/04 06:23:28;;;;;;;39.63;36.67;;;19.20;99.90;;;;;;4974895;28;20469;-71
2022/06/04 06:25:55;;;;;;;40.37;37.07;;;18.90;99.90;;;;;;4974722;28;21005;-71
2022/06/04 06:28:23;;;;;;;40.33;37.43;;;18.70;99.90;;;;;;4975011;28;20950;-71
2022/06/04 06:30:51;;;;;;;40.37;37.37;;;18.50;99.90;;;;;;4974727;28;20459;-72
2022/06/04 06:33:18;;;;;;;41.43;37.90;;;18.50;99.90;;;;;;4974825;28;20558;-73
2022/06/04 06:35:44;;;;;;;41.17;38.03;;;18.40;99.90;;;;;;4974459;28;20479;-72
2022/06/04 06:38:11;;;;;;;40.80;37.90;;;18.40;99.90;;;;;;4974649;28;20458;-72
2022/06/04 06:40:38;;;;;;;40.27;37.47;;;18.50;99.90;;;;;;4974558;28;20468;-72
2022/06/04 06:43:05;;;;;;;43.17;39.97;;;18.50;99.90;;;;;;4973815;28;20448;-73
2022/06/04 06:45:33;;;;;;;40.17;37.37;;;18.60;99.90;;;;;;4974755;28;20574;-73
2022/06/04 06:48:00;;;;;;;41.93;38.83;;;18.60;99.90;;;;;;4974740;28;20459;-75
2022/06/04 06:50:26;;;;;;;40.60;37.70;;;18.60;99.90;;;;;;4974523;28;20463;-74
2022/06/04 06:52:53;;;;;;;39.67;36.67;;;18.70;99.90;;;;;;4976045;28;20463;-75
2022/06/04 06:55:20;;;;;;;40.90;37.80;;;18.70;99.90;;;;;;4983701;28;20463;-74
2022/06/04 06:57:47;;;;;;;40.73;37.50;;;18.70;99.90;;;;;;4974722;28;20456;-73
2022/06/04 07:00:15;;;;;;;40.07;37.17;;;18.80;99.90;;;;;;4974125;28;20495;-73
2022/06/04 07:02:43;;;;;;;42.20;38.63;;;19.00;99.90;;;;;;4974015;28;20945;-74
2022/06/04 07:05:10;;;;;;;41.00;38.10;;;19.20;99.90;;;;;;4974080;28;21015;-74
2022/06/04 07:07:37;;;;;;;41.27;38.30;;;19.20;99.90;;;;;;4974387;28;20466;-75
2022/06/04 07:10:05;;;;;;;41.37;38.27;;;19.30;99.90;;;;;;4972636;28;20451;-75
2022/06/04 07:12:32;;;;;;;41.30;38.50;;;19.40;99.90;;;;;;4974155;28;20969;-72
2022/06/04 07:14:59;;;;;;;40.17;37.33;;;19.40;99.90;;;;;;4973768;28;21347;-74
2022/06/04 07:17:27;;;;;;;39.87;37.23;;;19.40;99.90;;;;;;4974045;28;20459;-75
2022/06/04 07:19:55;;;;;;;41.10;38.13;;;19.50;99.90;;;;;;4973987;28;20946;-74
2022/06/04 07:22:22;;;;;;;40.83;38.07;;;19.70;99.90;;;;;;4974327;28;20460;-75
2022/06/04 07:24:48;;;;;;;42.63;38.70;;;19.80;99.90;;;;;;4973636;28;20491;-75
2022/06/04 07:27:16;;;;;;;40.87;38.00;;;20.00;99.90;;;;;;4973747;28;20463;-75
2022/06/04 07:29:42;;;;;;;39.60;37.00;;;20.10;99.90;;;;;;4974029;28;20587;-75
2022/06/04 07:32:10;;;;;;;40.27;37.43;;;20.10;99.90;;;;;;4973724;28;20456;-75
2022/06/04 07:34:37;;;;;;;42.10;39.50;;;20.10;99.90;;;;;;4973794;28;20877;-74
2022/06/04 07:37:07;;;;;;;42.30;39.80;;;20.30;99.90;;;;;;4973374;28;20494;-74
2022/06/04 07:39:34;;;;;;;31.67;29.40;;;21.00;99.90;;;;;;4973735;28;20514;-74
2022/06/04 07:42:01;;;;;;;29.87;27.97;;;21.70;99.90;;;;;;4973474;28;20532;-75
2022/06/04 07:44:29;;;;;;;27.53;26.17;;;22.20;99.90;;;;;;4973221;28;20456;-75
2022/06/04 07:46:58;;;;;;;25.70;24.40;;;22.30;99.90;;;;;;4973341;28;20448;-75
2022/06/04 07:49:25;;;;;;;23.77;22.50;;;22.80;99.90;;;;;;4973898;28;20551;-75
2022/06/04 07:51:54;;;;;;;23.37;22.20;;;23.20;99.90;;;;;;4973654;28;20491;-75
2022/06/04 07:54:23;;;;;;;22.93;21.67;;;23.40;99.90;;;;;;4975566;28;20470;-75
2022/06/04 07:56:50;;;;;;;22.53;20.90;;;23.60;99.90;;;;;;4982006;28;20448;-75
2022/06/04 07:59:17;;;;;;;22.50;21.40;;;23.60;99.90;;;;;;4973531;28;20459;-75
2022/06/04 08:01:45;;;;;;;20.90;19.80;;;24.30;99.90;;;;;;4973192;28;20506;-76
2022/06/04 08:04:12;;;;;;;20.67;19.67;;;25.10;99.90;;;;;;4973354;28;20444;-76
2022/06/04 08:06:39;;;;;;;21.73;20.57;;;25.60;99.90;;;;;;4973471;28;20491;-76
2022/06/04 08:09:06;;;;;;;20.37;19.30;;;26.60;99.90;;;;;;4974040;28;20459;-79
2022/06/04 08:11:35;;;;;;;21.10;19.63;;;27.40;99.90;;;;;;4973580;28;20462;-84
2022/06/04 08:14:09;;;;;;;19.97;18.90;;;27.20;99.90;;;;;;4974237;28;20487;-78
2022/06/04 08:16:38;;;;;;;20.83;19.73;;;27.70;99.90;;;;;;4973644;28;20435;-77
2022/06/04 08:19:05;;;;;;;20.90;19.80;;;28.50;99.90;;;;;;4973745;28;20972;-77
2022/06/04 08:21:33;;;;;;;21.27;19.97;;;28.90;99.90;;;;;;4973344;28;20451;-77
2022/06/04 08:24:00;;;;;;;20.40;19.40;;;28.90;99.90;;;;;;4973268;28;20455;-76
2022/06/04 08:26:26;;;;;;;20.13;19.10;;;29.30;99.90;;;;;;4972909;28;20996;-78
2022/06/04 08:28:55;;;;;;;20.27;19.07;;;29.40;99.90;;;;;;4974369;28;20543;-76
2022/06/04 08:31:22;;;;;;;20.07;19.07;;;29.70;99.90;;;;;;4972591;28;20464;-74
2022/06/04 08:33:49;;;;;;;20.47;19.47;;;29.50;99.90;;;;;;4972563;28;20451;-75
2022/06/04 08:36:17;;;;;;;22.10;20.90;;;29.40;99.90;;;;;;4972440;28;20480;-75
2022/06/04 08:38:44;;;;;;;21.13;20.03;;;29.90;99.90;;;;;;4972593;28;20463;-75
2022/06/04 08:41:33;;;;;;;22.07;20.77;;;30.60;98.80;;;;;;4972266;28;20996;-76
2022/06/04 08:44:06;;;;;;;21.47;20.47;;;30.50;98.80;;;;;;4972770;28;20482;-74
2022/06/04 08:46:38;;;;;;;21.03;19.93;;;31.60;96.00;;;;;;4972259;28;20585;-76
2022/06/04 08:49:13;;;;;;;21.63;20.60;;;31.60;95.10;;;;;;4972702;28;20447;-76
2022/06/04 08:51:42;;;;;;;21.73;20.53;;;31.20;96.60;;;;;;4973775;28;20585;-78
2022/06/04 08:59:51;;;;;;;20.10;19.10;;;33.30;91.20;;;;;;4973820;28;20475;-76
2022/06/04 09:02:23;;;;;;;19.23;18.30;;;33.40;90.00;;;;;;4973100;28;20506;-77
2022/06/04 09:05:00;;;;;;;18.30;17.33;;;33.10;90.40;;;;;;4974157;28;20452;-78
2022/06/04 09:07:31;;;;;;;17.07;16.40;;;32.40;91.90;;;;;;4980705;28;20458;-77
2022/06/04 09:10:05;;;;;;;17.77;16.60;;;32.40;92.30;;;;;;4979789;28;20843;-79
2022/06/04 09:12:37;;;;;;;18.53;17.63;;;31.90;92.40;;;;;;4981931;28;20470;-75
2022/06/04 09:15:11;;;;;;;18.93;18.03;;;32.10;92.50;;;;;;4978860;28;20459;-75
2022/06/04 09:17:42;;;;;;;17.63;16.83;;;31.90;91.60;;;;;;4979233;28;20454;-78
2022/06/04 09:20:26;;;;;;;19.33;18.43;;;32.40;90.80;;;;;;4980552;28;20459;-78
2022/06/04 09:22:58;;;;;;;19.70;18.80;;;32.00;91.60;;;;;;4980411;28;20455;-78
2022/06/04 09:25:33;;;;;;;18.23;17.33;;;32.40;92.30;;;;;;4982872;28;20486;-78
2022/06/04 09:28:07;;;;;;;19.23;18.13;;;32.70;91.50;;;;;;4981565;28;20451;-80
2022/06/04 09:30:39;;;;;;;18.67;17.77;;;33.00;90.40;;;;;;4981951;28;20508;-78
2022/06/04 09:33:27;;;;;;;19.80;19.00;;;33.30;88.90;;;;;;4982034;28;20566;-78
2022/06/04 09:35:55;;;;;;;18.30;17.50;;;34.10;86.20;;;;;;4980661;28;20483;-77
2022/06/04 09:38:24;;;;;;;20.17;19.17;;;34.80;83.80;;;;;;4980848;28;20461;-80
2022/06/04 09:40:58;;;;;;;19.90;18.90;;;33.90;86.00;;;;;;4981497;28;20444;-79
2022/06/04 09:43:26;;;;;;;19.00;18.10;;;33.50;84.80;;;;;;4981498;28;20475;-78
2022/06/04 09:45:56;;;;;;;19.80;18.70;;;33.10;83.00;;;;;;4980810;28;20483;-77
2022/06/04 09:48:27;;;;;;;16.17;15.37;;;32.50;86.30;;;;;;4979710;28;20976;-76
2022/06/04 09:50:57;;;;;;;16.90;16.10;;;31.90;88.70;;;;;;4979597;28;21001;-79
2022/06/04 09:53:26;;;;;;;18.80;17.90;;;32.10;90.00;;;;;;4979283;28;20968;-80
2022/06/04 09:55:57;;;;;;;19.77;18.67;;;31.70;90.30;;;;;;4980530;28;20450;-81
2022/06/04 09:58:28;;;;;;;22.07;21.07;;;31.30;90.70;;;;;;4980519;28;20459;-80
2022/06/04 10:01:00;;;;;;;22.70;21.33;;;31.40;91.20;;;;;;4981491;28;20984;-79
2022/06/04 10:03:28;;;;;;;22.20;21.10;;;31.50;91.20;;;;;;4981823;28;20446;-79
2022/06/04 10:06:02;;;;;;;20.57;19.50;;;31.20;91.90;;;;;;4981521;28;20848;-78
2022/06/04 10:08:29;;;;;;;20.10;19.10;;;31.10;92.20;;;;;;4981738;28;20463;-80
2022/06/04 10:11:02;;;;;;;19.37;18.37;;;31.40;92.40;;;;;;4980505;28;20506;-80
2022/06/04 10:13:43;;;;;;;20.30;19.30;;;32.10;91.40;;;;;;4980266;28;20456;-79
2022/06/04 10:16:20;;;;;;;21.50;20.40;;;32.80;89.80;;;;;;4980891;28;20448;-79
2022/06/04 10:18:56;;;;;;;23.33;22.03;;;31.00;91.40;;;;;;4978185;28;20455;-79
2022/06/04 10:21:25;;;;;;;24.67;23.10;;;29.80;95.00;;;;;;4978097;28;20458;-78
2022/06/04 10:23:54;;;;;;;25.20;23.60;;;27.90;99.90;;;;;;4977472;28;20451;-78
2022/06/04 10:27:02;;;;;;;26.67;24.87;;;26.90;99.90;;;;;;4978068;28;20494;-78
2022/06/04 10:29:54;;;;;;;28.67;26.67;;;26.10;99.90;;;;;;4916067;29;20454;-77
2022/06/04 10:32:47;;;;;;;28.40;26.60;;;25.10;99.90;;;;;;4916804;29;20454;-77
2022/06/04 10:35:20;;;;;;;29.93;27.83;;;24.20;99.90;;;;;;4962520;28;20470;-77
2022/06/04 10:38:03;;;;;;;29.90;28.17;;;23.90;99.90;;;;;;4975457;28;20455;-77
2022/06/04 10:40:41;;;;;;;31.40;29.33;;;23.80;99.90;;;;;;4975529;28;20482;-77
2022/06/04 10:43:22;;;;;;;32.93;30.70;;;23.60;99.90;;;;;;4975348;28;20944;-76
2022/06/04 10:45:55;;;;;;;31.60;29.50;;;23.50;99.90;;;;;;4975810;28;20491;-75
2022/06/04 10:48:39;;;;;;;30.07;28.03;;;23.60;99.90;;;;;;4975451;28;20451;-78
2022/06/04 10:51:29;;;;;;;29.63;27.73;;;24.00;99.90;;;;;;4975815;28;20466;-77
2022/06/04 10:54:04;;;;;;;27.83;26.17;;;24.50;99.90;;;;;;4974587;28;20815;-77
2022/06/04 10:56:36;;;;;;;29.30;27.40;;;24.60;99.90;;;;;;4974843;28;20812;-77
2022/06/04 10:59:12;;;;;;;28.63;26.80;;;24.60;99.90;;;;;;4974972;28;20975;-76
2022/06/04 11:01:46;;;;;;;32.00;30.10;;;24.50;99.90;;;;;;4974309;28;20459;-76
2022/06/04 11:04:22;;;;;;;31.47;29.37;;;24.10;99.90;;;;;;4974485;28;20968;-78
2022/06/04 11:06:53;;;;;;;32.10;30.10;;;23.90;99.90;;;;;;4974213;28;20490;-75
2022/06/04 11:09:24;;;;;;;32.30;30.20;;;23.60;99.90;;;;;;4974655;28;20460;-75
2022/06/04 11:11:55;;;;;;;44.67;31.17;;;23.40;99.90;;;;;;4974629;28;20463;-76
2022/06/04 11:14:29;;;;;;;31.37;29.27;;;23.20;99.90;;;;;;4974404;28;20479;-76
2022/06/04 11:17:00;;;;;;;30.93;28.83;;;23.40;99.90;;;;;;4975305;28;20439;-76
2022/06/04 11:19:34;;;;;;;34.70;32.30;;;23.40;99.90;;;;;;4975050;28;20464;-75
2022/06/04 11:22:06;;;;;;;31.27;29.27;;;23.20;99.90;;;;;;4973960;28;20490;-76
2022/06/04 11:24:42;;;;;;;34.07;31.77;;;23.10;99.90;;;;;;4973885;28;20466;-76
2022/06/04 11:27:13;;;;;;;32.67;30.60;;;23.20;99.90;;;;;;4973985;28;20486;-76
2022/06/04 11:29:41;;;;;;;31.33;29.23;;;23.30;99.90;;;;;;4973613;28;20456;-76
2022/06/04 11:32:13;;;;;;;31.77;29.77;;;23.40;99.90;;;;;;4973921;28;20452;-77
2022/06/04 11:35:03;;;;;;;32.33;30.00;;;23.70;99.90;;;;;;4974255;28;20479;-77
2022/06/04 11:37:45;;;;;;;33.93;31.73;;;23.50;99.90;;;;;;4973925;28;20494;-75
2022/06/04 11:40:27;;;;;;;31.83;29.90;;;23.30;99.90;;;;;;4973704;28;20452;-76
2022/06/04 11:42:58;;;;;;;31.40;29.27;;;23.20;99.90;;;;;;4974285;28;20479;-77
2022/06/04 11:45:48;;;;;;;34.63;32.43;;;23.10;99.90;;;;;;4973709;28;20452;-76
2022/06/04 11:48:41;;;;;;;32.80;30.80;;;22.90;99.90;;;;;;4973886;28;20447;-76
2022/06/04 11:51:23;;;;;;;32.80;30.53;;;23.00;99.90;;;;;;4973369;28;20945;-75
2022/06/04 11:53:55;;;;;;;31.60;29.50;;;23.00;99.90;;;;;;4973343;28;20459;-77
2022/06/04 11:56:35;;;;;;;30.13;28.13;;;23.30;99.90;;;;;;4973647;28;20455;-74
2022/06/04 11:59:25;;;;;;;33.40;30.80;;;23.60;99.90;;;;;;4973566;28;20514;-77
2022/06/04 12:01:55;;;;;;;30.73;28.63;;;23.60;99.90;;;;;;4973179;28;20455;-77
2022/06/04 12:04:27;;;;;;;29.20;27.30;;;23.80;99.90;;;;;;4973134;28;20455;-77
2022/06/04 12:07:04;;;;;;;29.90;28.10;;;24.10;99.90;;;;;;4972862;28;20487;-75
2022/06/04 12:09:46;;;;;;;29.33;27.43;;;24.30;99.90;;;;;;4972789;28;20894;-76
2022/06/04 12:12:19;;;;;;;28.77;26.87;;;24.60;99.90;;;;;;4972673;28;21220;-77
2022/06/04 12:14:55;;;;;;;32.07;29.90;;;24.50;99.90;;;;;;4972667;28;20451;-76
2022/06/04 12:17:26;;;;;;;28.40;26.60;;;24.80;99.90;;;;;;4972831;28;20987;-76
2022/06/04 12:25:37;;;;;;;29.80;27.97;;;25.90;99.90;;;;;;4972325;28;20426;-76
2022/06/04 12:28:20;;;;;;;27.90;26.00;;;26.40;99.90;;;;;;4972840;28;20496;-77
2022/06/04 12:30:48;;;;;;;27.60;25.50;;;26.50;99.90;;;;;;4972399;28;20510;-76
2022/06/04 12:33:25;;;;;;;26.23;24.67;;;26.90;99.90;;;;;;4972585;28;20876;-75
2022/06/04 12:36:01;;;;;;;25.40;23.80;;;28.40;99.90;;;;;;4972440;28;20530;-76
2022/06/04 12:38:30;;;;;;;24.77;23.37;;;30.00;99.90;;;;;;4972538;28;20452;-77
2022/06/04 12:41:13;;;;;;;27.90;26.43;;;31.20;96.80;;;;;;4971161;28;20518;-77
2022/06/04 12:43:41;;;;;;;28.03;26.50;;;32.70;94.00;;;;;;4972090;28;20451;-77
2022/06/04 12:46:28;;;;;;;24.47;23.07;;;32.10;92.30;;;;;;4972513;28;20448;-78
2022/06/04 12:49:01;;;;;;;25.47;24.17;;;31.60;94.10;;;;;;4972422;28;20965;-78
2022/06/04 12:51:46;;;;;;;23.40;22.07;;;31.20;93.80;;;;;;4972529;28;20699;-78
2022/06/04 12:54:30;;;;;;;23.27;21.80;;;31.00;93.60;;;;;;4972562;28;20448;-78
2022/06/04 12:57:02;;;;;;;23.27;21.83;;;31.20;93.90;;;;;;4972394;28;20452;-77
2022/06/04 12:59:42;;;;;;;20.70;19.60;;;31.10;93.80;;;;;;4972420;28;20463;-77
2022/06/04 13:02:27;;;;;;;22.60;21.50;;;31.20;94.30;;;;;;4972025;28;20518;-74
2022/06/04 13:05:09;;;;;;;24.60;23.30;;;31.80;92.30;;;;;;4972370;28;20451;-77
2022/06/04 13:07:44;;;;;;;22.77;21.60;;;31.90;92.70;;;;;;4972108;28;20587;-77
2022/06/04 13:10:21;;;;;;;21.80;20.70;;;32.00;92.00;;;;;;4972240;28;20447;-76
2022/06/04 13:12:59;;;;;;;22.53;21.13;;;31.90;91.60;;;;;;4971972;28;20455;-78
2022/06/04 13:15:42;;;;;;;20.80;19.80;;;32.10;91.20;;;;;;4972033;28;20483;-78
2022/06/04 13:18:19;;;;;;;20.70;19.70;;;31.90;90.90;;;;;;4972316;28;20451;-77
2022/06/04 13:20:50;;;;;;;18.90;18.00;;;31.80;90.40;;;;;;4971988;28;20455;-77
2022/06/04 13:23:25;;;;;;;20.20;19.20;;;32.20;90.80;;;;;;4971883;28;20451;-76
2022/06/04 13:26:00;;;;;;;19.77;18.77;;;32.10;89.60;;;;;;4971929;28;20455;-75
2022/06/04 13:28:34;;;;;;;18.37;17.40;;;32.00;89.70;;;;;;4971614;28;21001;-76
2022/06/04 13:31:01;;;;;;;17.83;17.03;;;32.70;87.60;;;;;;4971773;28;20954;-76
2022/06/04 13:33:28;;;;;;;17.47;16.67;;;32.60;89.60;;;;;;4971613;28;20452;-76
2022/06/04 13:36:01;;;;;;;19.47;18.57;;;33.50;86.70;;;;;;4971386;28;20495;-77
2022/06/04 13:38:31;;;;;;;17.83;17.03;;;33.30;86.60;;;;;;4971744;28;20451;-76
2022/06/04 13:41:01;;;;;;;15.87;15.27;;;33.90;82.50;;;;;;4972146;28;20551;-76
2022/06/04 13:43:29;;;;;;;18.53;17.63;;;34.00;83.60;;;;;;4971844;28;20686;-76
2022/06/04 13:46:06;;;;;;;17.73;16.93;;;33.70;81.30;;;;;;4971419;28;20471;-76
2022/06/04 13:48:34;;;;;;;18.60;17.80;;;33.40;82.60;;;;;;4971281;28;20467;-75
2022/06/04 13:51:01;;;;;;;18.30;17.60;;;34.00;80.60;;;;;;4971277;28;20459;-74
2022/06/04 13:53:30;;;;;;;18.10;17.20;;;33.60;80.40;;;;;;4974173;28;20463;-75
2022/06/04 13:56:01;;;;;;;17.97;17.13;;;33.30;79.80;;;;;;4975007;28;20455;-75
2022/06/04 13:58:33;;;;;;;17.40;16.60;;;32.60;83.10;;;;;;4974846;28;20451;-76
2022/06/04 14:01:06;;;;;;;15.90;15.20;;;33.00;82.00;;;;;;4975110;28;20458;-74
2022/06/04 14:03:36;;;;;;;17.63;16.83;;;33.20;81.30;;;;;;4974871;28;20506;-76
2022/06/04 14:06:03;;;;;;;16.53;15.70;;;32.70;83.60;;;;;;4974892;28;20528;-75
2022/06/04 14:08:31;;;;;;;17.50;16.70;;;32.10;86.30;;;;;;4974878;28;20605;-76
2022/06/04 14:11:17;;;;;;;17.33;16.63;;;31.60;88.90;;;;;;4974783;28;20471;-76
2022/06/04 14:14:02;;;;;;;16.30;15.60;;;32.10;88.40;;;;;;4974924;28;20475;-76
2022/06/04 14:16:45;;;;;;;17.43;16.73;;;32.70;85.80;;;;;;4974645;28;20463;-76
2022/06/04 14:19:37;;;;;;;15.57;14.90;;;32.80;83.10;;;;;;4974760;28;20918;-77
2022/06/04 14:22:09;;;;;;;15.47;14.77;;;31.80;85.30;;;;;;4974686;28;20941;-77
2022/06/04 14:25:03;;;;;;;16.53;15.63;;;31.90;86.30;;;;;;4974668;28;20451;-76
2022/06/04 14:27:38;;;;;;;15.67;15.07;;;31.90;84.40;;;;;;4974769;28;20565;-75
2022/06/04 14:30:14;;;;;;;17.30;16.50;;;31.60;85.60;;;;;;4974810;28;20526;-75
2022/06/04 14:32:46;;;;;;;13.53;13.00;;;31.30;86.50;;;;;;4974451;28;20452;-77
2022/06/04 14:35:17;;;;;;;15.83;14.90;;;31.40;82.50;;;;;;4974290;28;20471;-75
2022/06/04 14:37:47;;;;;;;16.73;15.83;;;31.50;84.20;;;;;;4975066;28;20518;-76
2022/06/04 14:40:16;;;;;;;15.20;14.60;;;31.00;85.30;;;;;;4974633;28;20451;-76
2022/06/04 14:43:26;;;;;;;14.60;14.00;;;30.70;86.50;;;;;;4974290;28;20557;-76
2022/06/04 14:46:03;;;;;;;15.63;14.93;;;30.70;85.30;;;;;;4974336;28;20941;-76
2022/06/04 14:49:08;;;;;;;16.60;15.53;;;30.80;87.70;;;;;;4974053;28;20681;-75
2022/06/04 14:52:04;;;;;;;15.17;14.50;;;30.70;87.90;;;;;;4974695;28;20447;-75
2022/06/04 14:54:33;;;;;;;15.13;14.43;;;30.60;86.50;;;;;;4974087;28;20922;-75
2022/06/04 14:57:24;;;;;;;15.37;14.57;;;30.20;88.70;;;;;;4974218;28;20459;-76
2022/06/04 15:00:11;;;;;;;13.80;13.30;;;30.40;89.00;;;;;;4974068;28;20884;-75
2022/06/04 15:02:54;;;;;;;15.23;14.53;;;29.80;89.20;;;;;;4974156;28;20479;-75
2022/06/04 15:05:33;;;;;;;16.03;15.23;;;28.70;91.50;;;;;;4973366;28;20455;-75
2022/06/04 15:08:27;;;;;;;16.40;15.60;;;28.20;93.20;;;;;;4974337;28;21053;-76
2022/06/04 15:11:08;;;;;;;14.97;14.27;;;27.80;94.40;;;;;;4974064;28;20518;-76
2022/06/04 15:13:44;;;;;;;16.17;15.27;;;27.40;96.00;;;;;;4974118;28;20458;-76
2022/06/04 15:16:23;;;;;;;15.70;15.00;;;27.00;97.30;;;;;;4973935;28;20949;-75
2022/06/04 15:19:19;;;;;;;14.07;13.47;;;26.90;97.80;;;;;;4974051;28;20455;-75
2022/06/04 15:21:58;;;;;;;14.67;13.87;;;26.70;98.30;;;;;;4973962;28;20456;-76
2022/06/04 15:24:35;;;;;;;15.50;14.80;;;26.70;98.20;;;;;;4973879;28;20459;-76
2022/06/04 15:27:10;;;;;;;14.87;14.07;;;26.50;98.00;;;;;;4973448;28;20452;-76
2022/06/04 15:35:24;;;;;;;14.87;14.07;;;26.10;97.50;;;;;;4973464;28;21043;-75
2022/06/04 15:37:58;;;;;;;15.20;14.40;;;26.20;98.00;;;;;;4973695;28;20451;-76
2022/06/04 15:40:27;;;;;;;14.80;14.20;;;26.10;97.60;;;;;;4973426;28;20491;-76
2022/06/04 15:42:58;;;;;;;14.37;13.67;;;26.20;97.80;;;;;;4973431;28;20829;-75
2022/06/04 15:45:29;;;;;;;14.67;13.97;;;26.20;97.70;;;;;;4973725;28;20539;-76
2022/06/04 15:48:09;;;;;;;14.87;14.00;;;26.00;98.10;;;;;;4990415;28;20486;-75
2022/06/04 15:56:28;;;;;;;15.57;14.67;;;26.00;98.30;;;;;;4989594;28;20465;-74
2022/06/04 15:58:58;;;;;;;15.30;14.60;;;26.00;98.20;;;;;;4991193;28;20535;-76
2022/06/04 16:01:42;;;;;;;14.90;14.00;;;26.00;98.40;;;;;;4991293;28;20442;-76
2022/06/04 16:04:27;;;;;;;15.60;14.90;;;26.10;99.10;;;;;;4990187;28;20458;-75
2022/06/04 16:07:27;;;;;;;14.50;13.70;;;26.20;99.40;;;;;;4990764;28;20443;-76
2022/06/04 16:10:11;;;;;;;15.20;14.33;;;26.20;97.70;;;;;;4990710;28;20931;-75
2022/06/04 16:12:49;;;;;;;14.43;13.73;;;26.00;98.00;;;;;;4988859;28;20453;-76
2022/06/04 16:15:23;;;;;;;15.77;14.60;;;25.90;99.20;;;;;;4991758;28;20446;-76
2022/06/04 16:17:58;;;;;;;16.03;15.27;;;25.90;99.90;;;;;;4992667;28;20451;-74
2022/06/04 16:20:42;;;;;;;16.10;14.80;;;26.00;99.90;;;;;;4991907;28;20459;-75
2022/06/04 16:23:19;;;;;;;16.57;15.53;;;26.00;99.90;;;;;;4992156;28;20889;-75
2022/06/04 16:25:51;;;;;;;15.30;14.50;;;26.00;99.90;;;;;;4992324;28;20526;-77
2022/06/04 16:28:19;;;;;;;15.97;15.17;;;25.90;99.90;;;;;;4991891;28;20490;-75
2022/06/04 16:30:48;;;;;;;17.50;16.67;;;26.00;99.90;;;;;;4992285;28;20455;-76
2022/06/04 16:33:21;;;;;;;19.33;17.90;;;25.90;99.90;;;;;;4992003;28;20451;-76
2022/06/04 16:36:02;;;;;;;18.53;17.63;;;25.90;99.90;;;;;;4992072;28;20856;-76
2022/06/04 16:38:50;;;;;;;18.47;17.47;;;25.70;99.90;;;;;;4991998;28;20457;-75
2022/06/04 16:44:24;;;;;;;17.73;16.73;;;25.70;99.90;;;;;;4991951;28;20433;-76
2022/06/04 16:47:01;;;;;;;17.37;16.47;;;25.80;99.90;;;;;;4992147;28;20494;-74
2022/06/04 16:49:48;;;;;;;18.17;17.27;;;25.70;99.90;;;;;;4990266;28;20482;-75
2022/06/04 16:52:21;;;;;;;16.50;15.60;;;25.60;99.90;;;;;;4987611;28;20447;-75
2022/06/04 16:54:49;;;;;;;16.77;15.97;;;25.60;99.90;;;;;;4990716;28;20459;-75
2022/06/04 16:57:16;;;;;;;17.03;16.13;;;25.60;99.90;;;;;;4987755;28;20443;-75
2022/06/04 16:59:44;;;;;;;17.70;16.80;;;25.60;99.90;;;;;;4990456;28;20502;-76
2022/06/04 17:02:30;;;;;;;17.50;16.50;;;25.60;99.90;;;;;;4987709;28;20989;-76
2022/06/04 17:05:05;;;;;;;17.30;16.60;;;25.50;99.90;;;;;;4988470;28;20450;-76